sensor_id;sensor_type;location;lat;lon;timestamp;pressure;altitude;pressure_sealevel;temperature;humidity
28448;BME280;15675;52.870;-1.416;2022-09-28T00:01:25;99462.78;;;7.40;100.00
28448;BME280;15675;52.870;-1.416;2022-09-28T00:03:53;99465.28;;;7.58;100.00
28448;BME280;15675;52.870;-1.416;2022-09-28T00:06:23;99471.28;;;7.64;100.00
28448;BME280;15675;52.870;-1.416;2022-09-28T00:08:49;99463.59;;;7.47;100.00
28448;BME280;15675;52.870;-1.416;2022-09-28T00:11:15;99470.38;;;7.71;100.00
28448;BME280;15675;52.870;-1.416;2022-09-28T00:13:44;99478.19;;;7.60;100.00
28448;BME280;15675;52.870;-1.416;2022-09-28T00:16:13;99463.53;;;7.60;100.00
28448;BME280;15675;52.870;-1.416;2022-09-28T00:18:40;99461.88;;;7.52;100.00
28448;BME280;15675;52.870;-1.416;2022-09-28T00:21:08;99473.13;;;7.31;100.00
28448;BME280;15675;52.870;-1.416;2022-09-28T00:23:35;99472.28;;;7.19;100.00
28448;BME280;15675;52.870;-1.416;2022-09-28T00:26:20;99465.41;;;7.15;100.00
28448;BME280;15675;52.870;-1.416;2022-09-28T00:28:45;99468.88;;;7.06;100.00
28448;BME280;15675;52.870;-1.416;2022-09-28T00:31:11;99475.75;;;7.09;100.00
28448;BME280;15675;52.870;-1.416;2022-09-28T00:33:37;99476.59;;;7.11;100.00
28448;BME280;15675;52.870;-1.416;2022-09-28T00:36:04;99472.31;;;7.15;100.00
28448;BME280;15675;52.870;-1.416;2022-09-28T00:38:30;99474.03;;;7.06;100.00
28448;BME280;15675;52.870;-1.416;2022-09-28T00:40:55;99467.13;;;7.29;100.00
28448;BME280;15675;52.870;-1.416;2022-09-28T00:43:22;99472.22;;;7.47;100.00
28448;BME280;15675;52.870;-1.416;2022-09-28T00:45:58;99478.31;;;7.20;100.00
28448;BME280;15675;52.870;-1.416;2022-09-28T00:48:26;99474.84;;;7.22;100.00
28448;BME280;15675;52.870;-1.416;2022-09-28T00:50:52;99475.75;;;7.09;100.00
28448;BME280;15675;52.870;-1.416;2022-09-28T00:53:20;99480.94;;;7.00;100.00
28448;BME280;15675;52.870;-1.416;2022-09-28T00:55:54;99485.22;;;7.13;100.00
28448;BME280;15675;52.870;-1.416;2022-09-28T00:58:31;99480.94;;;7.01;100.00
28448;BME280;15675;52.870;-1.416;2022-09-28T01:00:58;99483.50;;;7.06;100.00
28448;BME280;15675;52.870;-1.416;2022-09-28T01:03:25;99486.94;;;6.88;100.00
28448;BME280;15675;52.870;-1.416;2022-09-28T01:05:54;99483.50;;;6.92;100.00
28448;BME280;15675;52.870;-1.416;2022-09-28T01:08:21;99478.34;;;6.78;100.00
28448;BME280;15675;52.870;-1.416;2022-09-28T01:10:48;99480.94;;;6.60;100.00
28448;BME280;15675;52.870;-1.416;2022-09-28T01:13:16;99478.38;;;6.46;100.00
28448;BME280;15675;52.870;-1.416;2022-09-28T01:15:56;99476.66;;;6.43;100.00
28448;BME280;15675;52.870;-1.416;2022-09-28T01:18:36;99472.34;;;6.54;100.00
28448;BME280;15675;52.870;-1.416;2022-09-28T01:21:13;99485.25;;;6.70;100.00
28448;BME280;15675;52.870;-1.416;2022-09-28T01:27:08;99486.97;;;6.86;100.00
28448;BME280;15675;52.870;-1.416;2022-09-28T01:35:10;99479.22;;;6.46;100.00
28448;BME280;15675;52.870;-1.416;2022-09-28T01:40:13;99472.38;;;6.51;100.00
28448;BME280;15675;52.870;-1.416;2022-09-28T01:42:42;99476.63;;;6.51;100.00
28448;BME280;15675;52.870;-1.416;2022-09-28T01:45:15;99476.63;;;6.49;100.00
28448;BME280;15675;52.870;-1.416;2022-09-28T01:47:45;99478.38;;;6.44;100.00
28448;BME280;15675;52.870;-1.416;2022-09-28T01:50:17;99474.06;;;6.55;100.00
28448;BME280;15675;52.870;-1.416;2022-09-28T01:52:59;99481.78;;;6.52;100.00
28448;BME280;15675;52.870;-1.416;2022-09-28T01:55:38;99474.94;;;6.34;100.00
28448;BME280;15675;52.870;-1.416;2022-09-28T02:00:41;99480.06;;;6.37;100.00
28448;BME280;15675;52.870;-1.416;2022-09-28T02:03:39;99476.63;;;6.34;100.00
28448;BME280;15675;52.870;-1.416;2022-09-28T02:06:15;99485.22;;;6.42;100.00
28448;BME280;15675;52.870;-1.416;2022-09-28T02:08:50;99486.97;;;6.46;100.00
28448;BME280;15675;52.870;-1.416;2022-09-28T02:11:19;99484.38;;;6.51;100.00
28448;BME280;15675;52.870;-1.416;2022-09-28T02:13:49;99487.81;;;6.57;100.00
28448;BME280;15675;52.870;-1.416;2022-09-28T02:19:01;99486.97;;;6.42;100.00
28448;BME280;15675;52.870;-1.416;2022-09-28T02:21:37;99477.50;;;6.54;100.00
28448;BME280;15675;52.870;-1.416;2022-09-28T02:24:09;99482.66;;;6.42;100.00
28448;BME280;15675;52.870;-1.416;2022-09-28T02:26:40;99482.66;;;6.48;100.00
28448;BME280;15675;52.870;-1.416;2022-09-28T02:29:06;99481.81;;;6.46;100.00
28448;BME280;15675;52.870;-1.416;2022-09-28T02:31:32;99484.38;;;6.52;100.00
28448;BME280;15675;52.870;-1.416;2022-09-28T02:33:58;99480.94;;;6.49;100.00
28448;BME280;15675;52.870;-1.416;2022-09-28T02:36:25;99479.22;;;6.51;100.00
28448;BME280;15675;52.870;-1.416;2022-09-28T02:38:51;99472.31;;;6.28;100.00
28448;BME280;15675;52.870;-1.416;2022-09-28T02:44:06;99478.31;;;6.24;100.00
28448;BME280;15675;52.870;-1.416;2022-09-28T02:49:25;99476.66;;;6.40;100.00
28448;BME280;15675;52.870;-1.416;2022-09-28T03:04:04;99490.38;;;6.39;100.00
28448;BME280;15675;52.870;-1.416;2022-09-28T03:06:46;99492.09;;;6.55;100.00
28448;BME280;15675;52.870;-1.416;2022-09-28T03:11:54;99498.16;;;6.51;100.00
28448;BME280;15675;52.870;-1.416;2022-09-28T03:14:21;99496.41;;;6.56;100.00
28448;BME280;15675;52.870;-1.416;2022-09-28T03:16:47;99499.00;;;6.49;100.00
28448;BME280;15675;52.870;-1.416;2022-09-28T03:19:13;99494.66;;;6.28;100.00
28448;BME280;15675;52.870;-1.416;2022-09-28T03:21:40;99489.47;;;6.06;100.00
28448;BME280;15675;52.870;-1.416;2022-09-28T03:24:06;99494.66;;;6.31;100.00
28448;BME280;15675;52.870;-1.416;2022-09-28T03:26:34;99494.69;;;6.43;100.00
28448;BME280;15675;52.870;-1.416;2022-09-28T03:29:00;99496.38;;;6.43;100.00
28448;BME280;15675;52.870;-1.416;2022-09-28T03:31:25;99496.41;;;6.44;100.00
28448;BME280;15675;52.870;-1.416;2022-09-28T03:33:51;99498.13;;;6.33;100.00
28448;BME280;15675;52.870;-1.416;2022-09-28T03:36:17;99504.16;;;6.46;100.00
28448;BME280;15675;52.870;-1.416;2022-09-28T03:38:42;99499.78;;;6.14;100.00
28448;BME280;15675;52.870;-1.416;2022-09-28T03:41:08;99497.22;;;6.18;100.00
28448;BME280;15675;52.870;-1.416;2022-09-28T03:43:34;99493.81;;;6.27;100.00
28448;BME280;15675;52.870;-1.416;2022-09-28T03:46:00;99503.28;;;6.41;100.00
28448;BME280;15675;52.870;-1.416;2022-09-28T03:48:32;99501.56;;;6.29;100.00
28448;BME280;15675;52.870;-1.416;2022-09-28T03:51:04;99504.97;;;6.31;100.00
28448;BME280;15675;52.870;-1.416;2022-09-28T03:53:32;99502.41;;;6.37;100.00
28448;BME280;15675;52.870;-1.416;2022-09-28T03:56:11;99490.34;;;6.31;100.00
28448;BME280;15675;52.870;-1.416;2022-09-28T03:58:37;99488.66;;;6.38;100.00
28448;BME280;15675;52.870;-1.416;2022-09-28T04:01:08;99504.16;;;6.53;100.00
28448;BME280;15675;52.870;-1.416;2022-09-28T04:03:34;99513.59;;;6.61;100.00
28448;BME280;15675;52.870;-1.416;2022-09-28T04:06:00;99514.47;;;6.46;100.00
28448;BME280;15675;52.870;-1.416;2022-09-28T04:08:25;99511.84;;;6.27;100.00
28448;BME280;15675;52.870;-1.416;2022-09-28T04:10:54;99512.72;;;6.32;100.00
28448;BME280;15675;52.870;-1.416;2022-09-28T04:13:20;99513.59;;;6.39;100.00
28448;BME280;15675;52.870;-1.416;2022-09-28T04:15:51;99511.00;;;6.36;100.00
28448;BME280;15675;52.870;-1.416;2022-09-28T04:18:18;99515.31;;;6.43;100.00
28448;BME280;15675;52.870;-1.416;2022-09-28T04:20:43;99520.47;;;6.43;100.00
28448;BME280;15675;52.870;-1.416;2022-09-28T04:23:12;99520.47;;;6.46;100.00
28448;BME280;15675;52.870;-1.416;2022-09-28T04:25:37;99525.63;;;6.55;100.00
28448;BME280;15675;52.870;-1.416;2022-09-28T04:28:04;99529.94;;;6.50;100.00
28448;BME280;15675;52.870;-1.416;2022-09-28T04:30:48;99535.09;;;6.55;100.00
28448;BME280;15675;52.870;-1.416;2022-09-28T04:33:13;99533.31;;;6.35;100.00
28448;BME280;15675;52.870;-1.416;2022-09-28T04:35:39;99533.31;;;6.34;100.00
28448;BME280;15675;52.870;-1.416;2022-09-28T04:38:04;99527.31;;;6.39;100.00
28448;BME280;15675;52.870;-1.416;2022-09-28T04:40:30;99530.75;;;6.25;100.00
28448;BME280;15675;52.870;-1.416;2022-09-28T04:42:55;99527.31;;;6.38;100.00
28448;BME280;15675;52.870;-1.416;2022-09-28T04:45:22;99522.97;;;6.17;100.00
28448;BME280;15675;52.870;-1.416;2022-09-28T04:47:49;99519.56;;;6.16;100.00
28448;BME280;15675;52.870;-1.416;2022-09-28T04:50:15;99520.38;;;6.06;100.00
28448;BME280;15675;52.870;-1.416;2022-09-28T04:52:40;99528.13;;;6.06;100.00
28448;BME280;15675;52.870;-1.416;2022-09-28T04:55:06;99520.38;;;6.06;100.00
28448;BME280;15675;52.870;-1.416;2022-09-28T04:57:34;99524.69;;;6.07;100.00
28448;BME280;15675;52.870;-1.416;2022-09-28T05:00:00;99530.75;;;6.21;100.00
28448;BME280;15675;52.870;-1.416;2022-09-28T05:02:26;99529.06;;;6.42;100.00
28448;BME280;15675;52.870;-1.416;2022-09-28T05:04:53;99524.78;;;6.49;100.00
28448;BME280;15675;52.870;-1.416;2022-09-28T05:07:21;99526.47;;;6.47;100.00
28448;BME280;15675;52.870;-1.416;2022-09-28T05:09:46;99523.06;;;6.42;100.00
28448;BME280;15675;52.870;-1.416;2022-09-28T05:12:12;99518.75;;;6.41;100.00
28448;BME280;15675;52.870;-1.416;2022-09-28T05:14:37;99512.75;;;6.43;100.00
28448;BME280;15675;52.870;-1.416;2022-09-28T05:17:03;99517.00;;;6.36;100.00
28448;BME280;15675;52.870;-1.416;2022-09-28T05:19:29;99506.63;;;5.98;100.00
28448;BME280;15675;52.870;-1.416;2022-09-28T05:21:54;99505.69;;;5.85;100.00
28448;BME280;15675;52.870;-1.416;2022-09-28T05:24:22;99504.78;;;5.77;100.00
28448;BME280;15675;52.870;-1.416;2022-09-28T05:26:48;99504.78;;;5.75;100.00
28448;BME280;15675;52.870;-1.416;2022-09-28T05:29:14;99498.78;;;5.75;100.00
28448;BME280;15675;52.870;-1.416;2022-09-28T05:31:39;99503.09;;;5.77;100.00
28448;BME280;15675;52.870;-1.416;2022-09-28T05:34:05;99506.53;;;5.88;100.00
28448;BME280;15675;52.870;-1.416;2022-09-28T05:36:30;99503.13;;;5.93;100.00
28448;BME280;15675;52.870;-1.416;2022-09-28T05:38:57;99512.56;;;5.95;100.00
28448;BME280;15675;52.870;-1.416;2022-09-28T05:41:22;99516.94;;;6.05;100.00
28448;BME280;15675;52.870;-1.416;2022-09-28T05:43:48;99522.97;;;6.01;100.00
28448;BME280;15675;52.870;-1.416;2022-09-28T05:46:16;99515.16;;;5.91;100.00
28448;BME280;15675;52.870;-1.416;2022-09-28T05:48:42;99517.72;;;5.89;100.00
28448;BME280;15675;52.870;-1.416;2022-09-28T05:51:08;99509.09;;;5.82;100.00
28448;BME280;15675;52.870;-1.416;2022-09-28T05:53:35;99515.00;;;5.57;100.00
28448;BME280;15675;52.870;-1.416;2022-09-28T05:56:00;99510.75;;;5.63;100.00
28448;BME280;15675;52.870;-1.416;2022-09-28T05:58:27;99514.97;;;5.49;100.00
28448;BME280;15675;52.870;-1.416;2022-09-28T06:00:54;99516.66;;;5.50;100.00
28448;BME280;15675;52.870;-1.416;2022-09-28T06:03:20;99513.34;;;5.73;100.00
28448;BME280;15675;52.870;-1.416;2022-09-28T06:05:46;99518.56;;;5.85;100.00
28448;BME280;15675;52.870;-1.416;2022-09-28T06:08:11;99528.03;;;5.89;100.00
28448;BME280;15675;52.870;-1.416;2022-09-28T06:10:37;99522.88;;;5.86;100.00
28448;BME280;15675;52.870;-1.416;2022-09-28T06:13:04;99533.19;;;5.95;100.00
28448;BME280;15675;52.870;-1.416;2022-09-28T06:15:32;99536.69;;;6.03;100.00
28448;BME280;15675;52.870;-1.416;2022-09-28T06:18:01;99532.34;;;5.92;100.00
28448;BME280;15675;52.870;-1.416;2022-09-28T06:20:29;99525.44;;;5.84;100.00
28448;BME280;15675;52.870;-1.416;2022-09-28T06:22:55;99520.22;;;5.72;100.00
28448;BME280;15675;52.870;-1.416;2022-09-28T06:25:22;99538.19;;;5.61;100.00
28448;BME280;15675;52.870;-1.416;2022-09-28T06:27:58;99530.47;;;5.63;100.00
28448;BME280;15675;52.870;-1.416;2022-09-28T06:30:26;99535.56;;;5.53;100.00
28448;BME280;15675;52.870;-1.416;2022-09-28T06:32:56;99540.75;;;5.63;100.00
28448;BME280;15675;52.870;-1.416;2022-09-28T06:35:23;99536.50;;;5.63;100.00
28448;BME280;15675;52.870;-1.416;2022-09-28T06:37:50;99544.22;;;5.68;100.00
28448;BME280;15675;52.870;-1.416;2022-09-28T06:40:16;99545.09;;;5.68;100.00
28448;BME280;15675;52.870;-1.416;2022-09-28T06:42:42;99546.81;;;5.68;100.00
28448;BME280;15675;52.870;-1.416;2022-09-28T06:45:08;99552.81;;;5.67;100.00
28448;BME280;15675;52.870;-1.416;2022-09-28T06:47:35;99554.53;;;5.66;100.00
28448;BME280;15675;52.870;-1.416;2022-09-28T06:50:03;99556.22;;;5.63;100.00
28448;BME280;15675;52.870;-1.416;2022-09-28T06:52:30;99558.66;;;5.43;100.00
28448;BME280;15675;52.870;-1.416;2022-09-28T06:54:56;99560.47;;;5.55;100.00
28448;BME280;15675;52.870;-1.416;2022-09-28T06:57:21;99563.91;;;5.57;100.00
28448;BME280;15675;52.870;-1.416;2022-09-28T06:59:46;99560.53;;;5.65;100.00
28448;BME280;15675;52.870;-1.416;2022-09-28T07:02:12;99562.31;;;5.79;100.00
28448;BME280;15675;52.870;-1.416;2022-09-28T07:04:42;99566.75;;;6.01;100.00
28448;BME280;15675;52.870;-1.416;2022-09-28T07:07:08;99573.66;;;6.12;100.00
28448;BME280;15675;52.870;-1.416;2022-09-28T07:09:34;99570.22;;;6.16;100.00
28448;BME280;15675;52.870;-1.416;2022-09-28T07:12:01;99564.19;;;6.09;100.00
28448;BME280;15675;52.870;-1.416;2022-09-28T07:14:32;99568.50;;;6.21;100.00
28448;BME280;15675;52.870;-1.416;2022-09-28T07:16:57;99573.69;;;6.24;100.00
28448;BME280;15675;52.870;-1.416;2022-09-28T07:19:23;99570.31;;;6.45;100.00
28448;BME280;15675;52.870;-1.416;2022-09-28T07:21:51;99569.50;;;6.57;100.00
28448;BME280;15675;52.870;-1.416;2022-09-28T07:24:17;99571.19;;;6.58;100.00
28448;BME280;15675;52.870;-1.416;2022-09-28T07:26:43;99570.34;;;6.54;100.00
28448;BME280;15675;52.870;-1.416;2022-09-28T07:29:10;99573.72;;;6.43;100.00
28448;BME280;15675;52.870;-1.416;2022-09-28T07:31:36;99571.19;;;6.44;100.00
28448;BME280;15675;52.870;-1.416;2022-09-28T07:34:02;99572.94;;;6.78;100.00
28448;BME280;15675;52.870;-1.416;2022-09-28T07:36:28;99583.22;;;6.64;100.00
28448;BME280;15675;52.870;-1.416;2022-09-28T07:38:54;99569.44;;;6.55;100.00
28448;BME280;15675;52.870;-1.416;2022-09-28T07:41:20;99578.91;;;6.58;100.00
28448;BME280;15675;52.870;-1.416;2022-09-28T07:44:00;99577.19;;;6.49;100.00
28448;BME280;15675;52.870;-1.416;2022-09-28T07:46:32;99573.72;;;6.41;100.00
28448;BME280;15675;52.870;-1.416;2022-09-28T07:48:58;99564.28;;;6.38;100.00
28448;BME280;15675;52.870;-1.416;2022-09-28T07:51:24;99576.38;;;6.67;100.00
28448;BME280;15675;52.870;-1.416;2022-09-28T07:53:49;99578.97;;;6.90;100.00
28448;BME280;15675;52.870;-1.416;2022-09-28T07:56:18;99585.00;;;6.76;100.00
28448;BME280;15675;52.870;-1.416;2022-09-28T07:58:45;99583.28;;;6.90;100.00
28448;BME280;15675;52.870;-1.416;2022-09-28T08:01:11;99582.41;;;6.76;100.00
28448;BME280;15675;52.870;-1.416;2022-09-28T08:03:39;99589.31;;;7.06;100.00
28448;BME280;15675;52.870;-1.416;2022-09-28T08:06:09;99589.28;;;7.15;100.00
28448;BME280;15675;52.870;-1.416;2022-09-28T08:08:37;99585.00;;;7.30;100.00
28448;BME280;15675;52.870;-1.416;2022-09-28T08:11:13;99592.72;;;7.42;100.00
28448;BME280;15675;52.870;-1.416;2022-09-28T08:13:39;99586.69;;;7.48;100.00
28448;BME280;15675;52.870;-1.416;2022-09-28T08:16:06;99593.53;;;7.67;100.00
28448;BME280;15675;52.870;-1.416;2022-09-28T08:18:33;99592.69;;;7.45;100.00
28448;BME280;15675;52.870;-1.416;2022-09-28T08:21:01;99590.97;;;7.66;100.00
28448;BME280;15675;52.870;-1.416;2022-09-28T08:23:45;99592.63;;;7.90;100.00
28448;BME280;15675;52.870;-1.416;2022-09-28T08:26:10;99589.13;;;8.02;100.00
28448;BME280;15675;52.870;-1.416;2022-09-28T08:28:36;99585.66;;;8.06;100.00
28448;BME280;15675;52.870;-1.416;2022-09-28T08:31:01;99590.78;;;8.20;100.00
28448;BME280;15675;52.870;-1.416;2022-09-28T08:33:27;99595.88;;;8.30;100.00
28448;BME280;15675;52.870;-1.416;2022-09-28T08:35:57;99594.16;;;8.33;100.00
28448;BME280;15675;52.870;-1.416;2022-09-28T08:38:24;99595.88;;;8.37;100.00
28448;BME280;15675;52.870;-1.416;2022-09-28T08:41:05;99601.84;;;8.53;100.00
28448;BME280;15675;52.870;-1.416;2022-09-28T08:46:20;99595.75;;;8.61;100.00
28448;BME280;15675;52.870;-1.416;2022-09-28T08:48:53;99586.34;;;8.51;100.00
28448;BME280;15675;52.870;-1.416;2022-09-28T08:51:28;99593.00;;;8.86;100.00
28448;BME280;15675;52.870;-1.416;2022-09-28T08:53:59;99591.19;;;8.97;100.00
28448;BME280;15675;52.870;-1.416;2022-09-28T08:59:02;99592.72;;;9.23;100.00
28448;BME280;15675;52.870;-1.416;2022-09-28T09:01:38;99590.09;;;9.29;100.00
28448;BME280;15675;52.870;-1.416;2022-09-28T09:04:06;99587.44;;;9.36;100.00
28448;BME280;15675;52.870;-1.416;2022-09-28T09:06:46;99604.53;;;9.54;100.00
28448;BME280;15675;52.870;-1.416;2022-09-28T09:09:20;99602.78;;;9.56;100.00
28448;BME280;15675;52.870;-1.416;2022-09-28T09:12:02;99588.84;;;9.67;100.00
28448;BME280;15675;52.870;-1.416;2022-09-28T09:18:03;99580.75;;;9.97;100.00
28448;BME280;15675;52.870;-1.416;2022-09-28T09:23:51;99582.06;;;10.30;100.00
28448;BME280;15675;52.870;-1.416;2022-09-28T09:25:49;99579.00;;;10.66;100.00
28448;BME280;15675;52.870;-1.416;2022-09-28T09:36:30;99565.56;;;10.95;100.00
28448;BME280;15675;52.870;-1.416;2022-09-28T09:47:36;99556.41;;;11.72;100.00
28448;BME280;15675;52.870;-1.416;2022-09-28T09:50:16;99553.22;;;11.58;100.00
28448;BME280;15675;52.870;-1.416;2022-09-28T09:52:53;99564.03;;;11.83;100.00
28448;BME280;15675;52.870;-1.416;2022-09-28T09:55:40;99559.50;;;11.95;100.00
28448;BME280;15675;52.870;-1.416;2022-09-28T09:58:16;99554.41;;;11.87;100.00
28448;BME280;15675;52.870;-1.416;2022-09-28T10:00:47;99565.13;;;11.71;100.00
28448;BME280;15675;52.870;-1.416;2022-09-28T10:03:27;99562.56;;;11.68;100.00
28448;BME280;15675;52.870;-1.416;2022-09-28T10:06:00;99555.72;;;12.09;100.00
28448;BME280;15675;52.870;-1.416;2022-09-28T10:08:30;99553.91;;;12.13;100.00
28448;BME280;15675;52.870;-1.416;2022-09-28T10:11:07;99549.00;;;12.38;99.28
28448;BME280;15675;52.870;-1.416;2022-09-28T10:13:35;99559.09;;;12.54;96.98
28448;BME280;15675;52.870;-1.416;2022-09-28T10:16:01;99555.31;;;12.67;97.32
28448;BME280;15675;52.870;-1.416;2022-09-28T10:18:27;99554.72;;;12.56;94.93
28448;BME280;15675;52.870;-1.416;2022-09-28T10:20:52;99551.34;;;12.51;98.19
28448;BME280;15675;52.870;-1.416;2022-09-28T10:23:27;99548.44;;;12.27;96.37
28448;BME280;15675;52.870;-1.416;2022-09-28T10:25:58;99553.47;;;12.33;96.38
28448;BME280;15675;52.870;-1.416;2022-09-28T10:28:54;99547.44;;;12.70;93.52
28448;BME280;15675;52.870;-1.416;2022-09-28T10:31:36;99546.00;;;12.94;92.52
28448;BME280;15675;52.870;-1.416;2022-09-28T10:34:03;99549.56;;;12.90;90.83
28448;BME280;15675;52.870;-1.416;2022-09-28T10:36:31;99542.72;;;12.86;90.21
28448;BME280;15675;52.870;-1.416;2022-09-28T10:39:23;99542.47;;;12.59;85.44
28448;BME280;15675;52.870;-1.416;2022-09-28T10:41:50;99546.34;;;13.15;85.21
28448;BME280;15675;52.870;-1.416;2022-09-28T10:44:17;99535.53;;;13.30;83.32
28448;BME280;15675;52.870;-1.416;2022-09-28T10:46:54;99532.63;;;13.43;82.17
28448;BME280;15675;52.870;-1.416;2022-09-28T10:49:21;99531.31;;;13.59;83.40
28448;BME280;15675;52.870;-1.416;2022-09-28T10:51:50;99522.41;;;13.68;81.34
28448;BME280;15675;52.870;-1.416;2022-09-28T10:56:41;99537.50;;;12.86;77.71
28448;BME280;15675;52.870;-1.416;2022-09-28T11:02:16;99525.06;;;13.32;77.71
28448;BME280;15675;52.870;-1.416;2022-09-28T11:04:51;99517.13;;;13.38;77.45
28448;BME280;15675;52.870;-1.416;2022-09-28T11:07:19;99522.53;;;13.29;77.62
28448;BME280;15675;52.870;-1.416;2022-09-28T11:09:48;99531.03;;;13.03;75.50
28448;BME280;15675;52.870;-1.416;2022-09-28T11:12:18;99535.28;;;12.71;75.05
28448;BME280;15675;52.870;-1.416;2022-09-28T11:14:45;99530.44;;;12.91;75.05
28448;BME280;15675;52.870;-1.416;2022-09-28T11:19:39;99531.88;;;13.38;75.11
28448;BME280;15675;52.870;-1.416;2022-09-28T11:22:28;99525.84;;;13.69;72.04
28448;BME280;15675;52.870;-1.416;2022-09-28T11:27:37;99527.06;;;13.88;70.81
28448;BME280;15675;52.870;-1.416;2022-09-28T11:30:03;99523.38;;;13.64;69.80
28448;BME280;15675;52.870;-1.416;2022-09-28T11:32:38;99525.50;;;13.81;69.06
28448;BME280;15675;52.870;-1.416;2022-09-28T11:35:04;99523.53;;;13.89;69.65
28448;BME280;15675;52.870;-1.416;2022-09-28T11:37:40;99518.16;;;13.64;69.26
28448;BME280;15675;52.870;-1.416;2022-09-28T11:40:16;99519.44;;;13.49;68.61
28448;BME280;15675;52.870;-1.416;2022-09-28T11:48:04;99514.97;;;13.20;73.19
28448;BME280;15675;52.870;-1.416;2022-09-28T11:50:44;99522.63;;;13.26;73.71
28448;BME280;15675;52.870;-1.416;2022-09-28T11:56:37;99514.72;;;13.29;74.26
28448;BME280;15675;52.870;-1.416;2022-09-28T11:58:46;99514.19;;;13.16;75.43
28448;BME280;15675;52.870;-1.416;2022-09-28T12:03:54;99512.38;;;13.20;74.88
28448;BME280;15675;52.870;-1.416;2022-09-28T12:06:29;99523.59;;;13.22;73.93
28448;BME280;15675;52.870;-1.416;2022-09-28T12:09:04;99504.84;;;13.73;75.03
28448;BME280;15675;52.870;-1.416;2022-09-28T12:11:35;99513.31;;;13.81;72.86
28448;BME280;15675;52.870;-1.416;2022-09-28T12:14:05;99510.09;;;14.03;72.92
28448;BME280;15675;52.870;-1.416;2022-09-28T12:16:40;99503.69;;;13.84;71.39
28448;BME280;15675;52.870;-1.416;2022-09-28T12:19:21;99507.38;;;13.76;68.83
28448;BME280;15675;52.870;-1.416;2022-09-28T12:21:55;99501.00;;;13.87;68.31
28448;BME280;15675;52.870;-1.416;2022-09-28T12:24:27;99503.69;;;13.84;68.53
28448;BME280;15675;52.870;-1.416;2022-09-28T12:34:54;99502.97;;;14.08;67.46
28448;BME280;15675;52.870;-1.416;2022-09-28T12:37:24;99497.31;;;13.94;66.24
28448;BME280;15675;52.870;-1.416;2022-09-28T12:45:15;99487.31;;;14.65;65.48
28448;BME280;15675;52.870;-1.416;2022-09-28T13:09:22;99466.97;;;14.20;61.13
28448;BME280;15675;52.870;-1.416;2022-09-28T13:19:57;99465.88;;;14.55;58.95
28448;BME280;15675;52.870;-1.416;2022-09-28T13:22:37;99464.53;;;14.42;58.46
28448;BME280;15675;52.870;-1.416;2022-09-28T13:25:13;99473.66;;;14.28;60.21
28448;BME280;15675;52.870;-1.416;2022-09-28T13:28:04;99465.78;;;14.30;59.95
28448;BME280;15675;52.870;-1.416;2022-09-28T13:30:29;99452.81;;;14.82;59.55
28448;BME280;15675;52.870;-1.416;2022-09-28T13:32:58;99459.44;;;14.92;58.54
28448;BME280;15675;52.870;-1.416;2022-09-28T13:35:25;99459.44;;;14.92;58.18
28448;BME280;15675;52.870;-1.416;2022-09-28T13:38:29;99457.78;;;14.90;57.90
28448;BME280;15675;52.870;-1.416;2022-09-28T13:49:23;99463.03;;;14.63;61.83
28448;BME280;15675;52.870;-1.416;2022-09-28T13:52:01;99447.59;;;14.82;60.06
28448;BME280;15675;52.870;-1.416;2022-09-28T13:57:26;99454.31;;;15.14;58.46
28448;BME280;15675;52.870;-1.416;2022-09-28T13:59:59;99448.19;;;15.15;59.07
28448;BME280;15675;52.870;-1.416;2022-09-28T14:05:04;99447.25;;;15.18;57.31
28448;BME280;15675;52.870;-1.416;2022-09-28T14:10:18;99435.94;;;15.41;56.00
28448;BME280;15675;52.870;-1.416;2022-09-28T14:12:46;99439.16;;;15.24;55.87
28448;BME280;15675;52.870;-1.416;2022-09-28T14:18:15;99445.03;;;14.80;59.56
28448;BME280;15675;52.870;-1.416;2022-09-28T14:29:37;99448.06;;;13.83;60.25
28448;BME280;15675;52.870;-1.416;2022-09-28T14:34:37;99452.31;;;13.87;61.08
28448;BME280;15675;52.870;-1.416;2022-09-28T14:48:51;99450.41;;;14.21;60.56
28448;BME280;15675;52.870;-1.416;2022-09-28T14:53:49;99444.38;;;14.47;62.53
28448;BME280;15675;52.870;-1.416;2022-09-28T14:56:17;99447.09;;;14.44;62.55
28448;BME280;15675;52.870;-1.416;2022-09-28T14:58:44;99441.63;;;14.23;62.04
28448;BME280;15675;52.870;-1.416;2022-09-28T15:01:18;99443.03;;;14.07;61.56
28448;BME280;15675;52.870;-1.416;2022-09-28T15:03:47;99435.88;;;14.12;61.48
28448;BME280;15675;52.870;-1.416;2022-09-28T15:06:15;99442.97;;;14.08;60.13
28448;BME280;15675;52.870;-1.416;2022-09-28T15:08:42;99440.88;;;14.20;59.52
28448;BME280;15675;52.870;-1.416;2022-09-28T15:11:17;99441.41;;;14.31;59.62
28448;BME280;15675;52.870;-1.416;2022-09-28T15:13:44;99434.78;;;14.47;58.94
28448;BME280;15675;52.870;-1.416;2022-09-28T15:16:12;99435.66;;;14.46;57.92
28448;BME280;15675;52.870;-1.416;2022-09-28T15:21:22;99424.25;;;15.28;57.19
28448;BME280;15675;52.870;-1.416;2022-09-28T15:23:48;99429.09;;;15.13;56.20
28448;BME280;15675;52.870;-1.416;2022-09-28T15:26:23;99431.28;;;14.75;56.78
28448;BME280;15675;52.870;-1.416;2022-09-28T15:28:52;99430.56;;;14.43;58.42
28448;BME280;15675;52.870;-1.416;2022-09-28T15:31:21;99426.91;;;14.76;60.32
28448;BME280;15675;52.870;-1.416;2022-09-28T15:33:47;99425.53;;;14.91;61.24
28448;BME280;15675;52.870;-1.416;2022-09-28T15:36:40;99427.22;;;14.66;60.37
28448;BME280;15675;52.870;-1.416;2022-09-28T15:39:18;99442.22;;;14.60;62.53
28448;BME280;15675;52.870;-1.416;2022-09-28T15:41:47;99447.75;;;14.77;62.32
28448;BME280;15675;52.870;-1.416;2022-09-28T15:46:41;99438.03;;;14.27;61.03
28448;BME280;15675;52.870;-1.416;2022-09-28T15:49:27;99429.81;;;14.40;61.54
28448;BME280;15675;52.870;-1.416;2022-09-28T15:51:56;99417.09;;;14.56;62.39
28448;BME280;15675;52.870;-1.416;2022-09-28T15:54:24;99427.63;;;14.26;61.26
28448;BME280;15675;52.870;-1.416;2022-09-28T15:59:25;99438.19;;;13.94;61.23
28448;BME280;15675;52.870;-1.416;2022-09-28T16:02:16;99436.56;;;13.90;63.65
28448;BME280;15675;52.870;-1.416;2022-09-28T16:04:48;99437.56;;;14.14;63.40
28448;BME280;15675;52.870;-1.416;2022-09-28T16:07:25;99436.88;;;14.08;63.90